sensor_id;sensor_type;location;lat;lon;timestamp;temperature;humidity
15450;DHT22;7826;49.784;9.934;2024-01-30T00:00:01;2.60;1.00
15450;DHT22;7826;49.784;9.934;2024-01-30T00:02:27;2.60;1.00
15450;DHT22;7826;49.784;9.934;2024-01-30T00:04:53;2.60;1.00
15450;DHT22;7826;49.784;9.934;2024-01-30T00:07:19;2.60;1.00
15450;DHT22;7826;49.784;9.934;2024-01-30T00:09:47;2.50;1.00
15450;DHT22;7826;49.784;9.934;2024-01-30T00:12:14;2.50;1.00
15450;DHT22;7826;49.784;9.934;2024-01-30T00:14:43;2.50;1.00
15450;DHT22;7826;49.784;9.934;2024-01-30T00:17:10;2.50;1.00
15450;DHT22;7826;49.784;9.934;2024-01-30T00:19:36;2.50;1.00
15450;DHT22;7826;49.784;9.934;2024-01-30T00:22:02;2.50;1.00
15450;DHT22;7826;49.784;9.934;2024-01-30T00:24:28;2.50;1.00
15450;DHT22;7826;49.784;9.934;2024-01-30T00:26:54;2.50;1.00
15450;DHT22;7826;49.784;9.934;2024-01-30T00:29:21;2.60;1.00
15450;DHT22;7826;49.784;9.934;2024-01-30T00:31:48;2.60;1.00
15450;DHT22;7826;49.784;9.934;2024-01-30T00:34:14;2.70;1.00
15450;DHT22;7826;49.784;9.934;2024-01-30T00:36:41;2.60;1.00
15450;DHT22;7826;49.784;9.934;2024-01-30T00:39:07;2.60;1.00
15450;DHT22;7826;49.784;9.934;2024-01-30T00:41:35;2.50;1.00
15450;DHT22;7826;49.784;9.934;2024-01-30T00:44:01;2.40;1.00
15450;DHT22;7826;49.784;9.934;2024-01-30T00:46:27;2.40;1.00
15450;DHT22;7826;49.784;9.934;2024-01-30T00:48:53;2.40;1.00
15450;DHT22;7826;49.784;9.934;2024-01-30T00:51:19;2.40;1.00
15450;DHT22;7826;49.784;9.934;2024-01-30T00:53:45;2.40;1.00
15450;DHT22;7826;49.784;9.934;2024-01-30T00:56:12;2.40;1.00
15450;DHT22;7826;49.784;9.934;2024-01-30T00:58:38;2.40;1.00
15450;DHT22;7826;49.784;9.934;2024-01-30T01:01:04;2.50;1.00
15450;DHT22;7826;49.784;9.934;2024-01-30T01:03:30;2.50;1.00
15450;DHT22;7826;49.784;9.934;2024-01-30T01:05:56;2.50;1.00
15450;DHT22;7826;49.784;9.934;2024-01-30T01:08:22;2.50;1.00
15450;DHT22;7826;49.784;9.934;2024-01-30T01:10:48;2.50;1.00
15450;DHT22;7826;49.784;9.934;2024-01-30T01:13:14;2.50;1.00
15450;DHT22;7826;49.784;9.934;2024-01-30T01:15:40;2.50;1.00
15450;DHT22;7826;49.784;9.934;2024-01-30T01:18:07;2.40;1.00
15450;DHT22;7826;49.784;9.934;2024-01-30T01:20:33;2.50;1.00
15450;DHT22;7826;49.784;9.934;2024-01-30T01:22:59;2.40;1.00
15450;DHT22;7826;49.784;9.934;2024-01-30T01:25:25;2.40;1.00
15450;DHT22;7826;49.784;9.934;2024-01-30T01:27:51;2.40;1.00
15450;DHT22;7826;49.784;9.934;2024-01-30T01:30:18;2.40;1.00
15450;DHT22;7826;49.784;9.934;2024-01-30T02:48:32;2.10;1.00
15450;DHT22;7826;49.784;9.934;2024-01-30T02:50:58;2.10;1.00
15450;DHT22;7826;49.784;9.934;2024-01-30T02:53:25;2.00;1.00
15450;DHT22;7826;49.784;9.934;2024-01-30T02:55:51;1.90;1.00
15450;DHT22;7826;49.784;9.934;2024-01-30T02:58:17;1.90;1.00
15450;DHT22;7826;49.784;9.934;2024-01-30T03:00:43;1.90;1.00
15450;DHT22;7826;49.784;9.934;2024-01-30T03:03:10;1.80;1.00
15450;DHT22;7826;49.784;9.934;2024-01-30T03:05:36;1.90;1.00
15450;DHT22;7826;49.784;9.934;2024-01-30T03:08:04;1.90;1.00
15450;DHT22;7826;49.784;9.934;2024-01-30T03:10:31;2.00;1.00
15450;DHT22;7826;49.784;9.934;2024-01-30T03:12:58;2.00;1.00
15450;DHT22;7826;49.784;9.934;2024-01-30T03:15:24;1.90;1.00
15450;DHT22;7826;49.784;9.934;2024-01-30T03:17:50;1.90;1.00
15450;DHT22;7826;49.784;9.934;2024-01-30T03:20:16;1.90;1.00
15450;DHT22;7826;49.784;9.934;2024-01-30T03:22:42;1.90;1.00
15450;DHT22;7826;49.784;9.934;2024-01-30T03:25:08;1.90;1.00
15450;DHT22;7826;49.784;9.934;2024-01-30T03:27:34;1.90;1.00
15450;DHT22;7826;49.784;9.934;2024-01-30T03:30:00;1.90;1.00
15450;DHT22;7826;49.784;9.934;2024-01-30T03:32:27;1.90;1.00
15450;DHT22;7826;49.784;9.934;2024-01-30T03:34:53;1.90;1.00
15450;DHT22;7826;49.784;9.934;2024-01-30T03:37:19;1.90;1.00
15450;DHT22;7826;49.784;9.934;2024-01-30T03:39:46;1.90;1.00
15450;DHT22;7826;49.784;9.934;2024-01-30T03:42:12;1.90;1.00
15450;DHT22;7826;49.784;9.934;2024-01-30T03:44:38;1.90;1.00
15450;DHT22;7826;49.784;9.934;2024-01-30T03:47:04;2.00;1.00
15450;DHT22;7826;49.784;9.934;2024-01-30T03:49:30;2.00;1.00
15450;DHT22;7826;49.784;9.934;2024-01-30T03:51:56;2.00;1.00
15450;DHT22;7826;49.784;9.934;2024-01-30T03:54:22;2.00;1.00
15450;DHT22;7826;49.784;9.934;2024-01-30T03:56:48;1.90;1.00
15450;DHT22;7826;49.784;9.934;2024-01-30T03:59:14;1.90;1.00
15450;DHT22;7826;49.784;9.934;2024-01-30T04:01:41;1.90;1.00
15450;DHT22;7826;49.784;9.934;2024-01-30T04:04:07;1.80;1.00
15450;DHT22;7826;49.784;9.934;2024-01-30T04:06:33;1.80;1.00
15450;DHT22;7826;49.784;9.934;2024-01-30T04:08:59;1.80;1.00
15450;DHT22;7826;49.784;9.934;2024-01-30T04:11:25;1.80;1.00
15450;DHT22;7826;49.784;9.934;2024-01-30T04:13:51;1.80;1.00
15450;DHT22;7826;49.784;9.934;2024-01-30T04:16:21;1.70;1.00
15450;DHT22;7826;49.784;9.934;2024-01-30T04:18:48;1.70;1.00
15450;DHT22;7826;49.784;9.934;2024-01-30T04:21:14;1.80;1.00
15450;DHT22;7826;49.784;9.934;2024-01-30T04:23:41;1.80;1.00
15450;DHT22;7826;49.784;9.934;2024-01-30T04:26:07;1.80;1.00
15450;DHT22;7826;49.784;9.934;2024-01-30T04:28:33;1.80;1.00
15450;DHT22;7826;49.784;9.934;2024-01-30T04:30:59;1.70;1.00
15450;DHT22;7826;49.784;9.934;2024-01-30T04:33:25;1.70;1.00
15450;DHT22;7826;49.784;9.934;2024-01-30T04:35:51;1.70;1.00
15450;DHT22;7826;49.784;9.934;2024-01-30T04:38:18;1.60;1.00
15450;DHT22;7826;49.784;9.934;2024-01-30T04:40:44;1.60;1.00
15450;DHT22;7826;49.784;9.934;2024-01-30T04:43:10;1.60;1.00
15450;DHT22;7826;49.784;9.934;2024-01-30T04:45:36;1.50;1.00
15450;DHT22;7826;49.784;9.934;2024-01-30T04:48:02;1.50;1.00
15450;DHT22;7826;49.784;9.934;2024-01-30T04:50:29;1.50;1.00
15450;DHT22;7826;49.784;9.934;2024-01-30T04:52:55;1.60;1.00
15450;DHT22;7826;49.784;9.934;2024-01-30T04:55:21;1.60;1.00
15450;DHT22;7826;49.784;9.934;2024-01-30T04:57:48;1.50;1.00
15450;DHT22;7826;49.784;9.934;2024-01-30T05:00:14;1.50;1.00
15450;DHT22;7826;49.784;9.934;2024-01-30T05:02:41;1.50;1.00
15450;DHT22;7826;49.784;9.934;2024-01-30T05:05:07;1.50;1.00
15450;DHT22;7826;49.784;9.934;2024-01-30T05:07:33;1.40;1.00
15450;DHT22;7826;49.784;9.934;2024-01-30T05:10:00;1.40;1.00
15450;DHT22;7826;49.784;9.934;2024-01-30T05:12:26;1.40;1.00
15450;DHT22;7826;49.784;9.934;2024-01-30T05:14:52;1.50;1.00
15450;DHT22;7826;49.784;9.934;2024-01-30T05:17:19;1.50;1.00
15450;DHT22;7826;49.784;9.934;2024-01-30T05:19:45;1.50;1.00
15450;DHT22;7826;49.784;9.934;2024-01-30T05:22:11;1.40;1.00
15450;DHT22;7826;49.784;9.934;2024-01-30T05:24:41;1.40;1.00
15450;DHT22;7826;49.784;9.934;2024-01-30T05:27:10;1.40;1.00
15450;DHT22;7826;49.784;9.934;2024-01-30T05:29:37;1.30;1.00
15450;DHT22;7826;49.784;9.934;2024-01-30T05:32:03;1.40;1.00
15450;DHT22;7826;49.784;9.934;2024-01-30T05:34:31;1.40;1.00
15450;DHT22;7826;49.784;9.934;2024-01-30T05:36:58;1.50;1.00
15450;DHT22;7826;49.784;9.934;2024-01-30T05:39:24;1.40;1.00
15450;DHT22;7826;49.784;9.934;2024-01-30T05:41:50;1.40;1.00
15450;DHT22;7826;49.784;9.934;2024-01-30T05:44:16;1.40;1.00
15450;DHT22;7826;49.784;9.934;2024-01-30T05:46:42;1.40;1.00
15450;DHT22;7826;49.784;9.934;2024-01-30T05:49:08;1.40;1.00
15450;DHT22;7826;49.784;9.934;2024-01-30T05:51:34;1.40;1.00
15450;DHT22;7826;49.784;9.934;2024-01-30T05:54:01;1.40;1.00
15450;DHT22;7826;49.784;9.934;2024-01-30T05:56:29;1.40;1.00
15450;DHT22;7826;49.784;9.934;2024-01-30T05:58:55;1.40;1.00
15450;DHT22;7826;49.784;9.934;2024-01-30T06:01:21;1.40;1.00
15450;DHT22;7826;49.784;9.934;2024-01-30T06:03:47;1.40;1.00
15450;DHT22;7826;49.784;9.934;2024-01-30T06:31:59;1.80;1.00
15450;DHT22;7826;49.784;9.934;2024-01-30T06:34:25;1.90;1.00
15450;DHT22;7826;49.784;9.934;2024-01-30T06:36:52;1.90;1.00
15450;DHT22;7826;49.784;9.934;2024-01-30T06:39:18;2.00;1.00
15450;DHT22;7826;49.784;9.934;2024-01-30T06:41:44;2.00;1.00
15450;DHT22;7826;49.784;9.934;2024-01-30T06:44:12;2.00;1.00
15450;DHT22;7826;49.784;9.934;2024-01-30T06:46:39;2.10;1.00
15450;DHT22;7826;49.784;9.934;2024-01-30T06:49:05;2.10;1.00
15450;DHT22;7826;49.784;9.934;2024-01-30T06:51:31;2.10;1.00
15450;DHT22;7826;49.784;9.934;2024-01-30T06:53:57;2.10;1.00
15450;DHT22;7826;49.784;9.934;2024-01-30T06:56:23;2.20;1.00
15450;DHT22;7826;49.784;9.934;2024-01-30T06:58:50;2.20;1.00
15450;DHT22;7826;49.784;9.934;2024-01-30T07:01:16;2.30;1.00
15450;DHT22;7826;49.784;9.934;2024-01-30T07:03:43;2.30;1.00
15450;DHT22;7826;49.784;9.934;2024-01-30T07:06:09;2.30;1.00
15450;DHT22;7826;49.784;9.934;2024-01-30T07:08:37;2.30;1.00
15450;DHT22;7826;49.784;9.934;2024-01-30T07:11:06;2.40;1.00
15450;DHT22;7826;49.784;9.934;2024-01-30T07:13:33;2.30;1.00
15450;DHT22;7826;49.784;9.934;2024-01-30T07:16:00;2.50;1.00
15450;DHT22;7826;49.784;9.934;2024-01-30T07:18:26;2.30;1.00
15450;DHT22;7826;49.784;9.934;2024-01-30T07:20:52;2.30;1.00
15450;DHT22;7826;49.784;9.934;2024-01-30T07:23:18;2.20;1.00
15450;DHT22;7826;49.784;9.934;2024-01-30T07:25:44;2.30;1.00
15450;DHT22;7826;49.784;9.934;2024-01-30T07:28:11;2.30;1.00
15450;DHT22;7826;49.784;9.934;2024-01-30T07:30:43;2.30;1.00
15450;DHT22;7826;49.784;9.934;2024-01-30T07:33:09;2.30;1.00
15450;DHT22;7826;49.784;9.934;2024-01-30T07:35:36;2.30;1.00
15450;DHT22;7826;49.784;9.934;2024-01-30T07:38:02;2.40;1.00
15450;DHT22;7826;49.784;9.934;2024-01-30T07:40:28;2.50;1.00
15450;DHT22;7826;49.784;9.934;2024-01-30T07:42:55;2.50;1.00
15450;DHT22;7826;49.784;9.934;2024-01-30T07:45:22;2.50;1.00
15450;DHT22;7826;49.784;9.934;2024-01-30T07:47:50;2.60;1.00
15450;DHT22;7826;49.784;9.934;2024-01-30T07:50:16;2.60;1.00
15450;DHT22;7826;49.784;9.934;2024-01-30T07:52:43;2.60;1.00
15450;DHT22;7826;49.784;9.934;2024-01-30T07:55:09;2.60;1.00
15450;DHT22;7826;49.784;9.934;2024-01-30T07:57:38;2.70;1.00
15450;DHT22;7826;49.784;9.934;2024-01-30T08:00:05;2.70;1.00
15450;DHT22;7826;49.784;9.934;2024-01-30T08:02:33;2.70;1.00
15450;DHT22;7826;49.784;9.934;2024-01-30T08:05:17;2.70;1.00
15450;DHT22;7826;49.784;9.934;2024-01-30T08:07:44;2.80;1.00
15450;DHT22;7826;49.784;9.934;2024-01-30T08:10:11;2.80;1.00
15450;DHT22;7826;49.784;9.934;2024-01-30T08:12:39;2.80;1.00
15450;DHT22;7826;49.784;9.934;2024-01-30T08:15:05;3.20;1.00
15450;DHT22;7826;49.784;9.934;2024-01-30T08:17:32;2.90;1.00
15450;DHT22;7826;49.784;9.934;2024-01-30T08:19:58;2.90;1.00
15450;DHT22;7826;49.784;9.934;2024-01-30T08:22:24;3.00;99.90
15450;DHT22;7826;49.784;9.934;2024-01-30T08:24:50;3.20;99.90
15450;DHT22;7826;49.784;9.934;2024-01-30T08:27:17;3.20;1.00
15450;DHT22;7826;49.784;9.934;2024-01-30T08:29:43;3.10;99.90
15450;DHT22;7826;49.784;9.934;2024-01-30T08:32:09;3.10;99.90
15450;DHT22;7826;49.784;9.934;2024-01-30T08:34:35;3.30;99.90
15450;DHT22;7826;49.784;9.934;2024-01-30T08:37:01;3.30;99.90
15450;DHT22;7826;49.784;9.934;2024-01-30T08:39:28;3.40;99.90
15450;DHT22;7826;49.784;9.934;2024-01-30T08:41:54;3.40;99.90
15450;DHT22;7826;49.784;9.934;2024-01-30T08:44:20;3.40;99.90
15450;DHT22;7826;49.784;9.934;2024-01-30T08:46:46;3.40;99.90
15450;DHT22;7826;49.784;9.934;2024-01-30T08:49:13;3.60;99.90
15450;DHT22;7826;49.784;9.934;2024-01-30T08:51:40;3.60;99.90
15450;DHT22;7826;49.784;9.934;2024-01-30T08:54:06;3.60;99.90
15450;DHT22;7826;49.784;9.934;2024-01-30T08:56:32;3.70;99.90
15450;DHT22;7826;49.784;9.934;2024-01-30T08:58:58;3.70;99.90
15450;DHT22;7826;49.784;9.934;2024-01-30T09:01:25;3.90;99.90
15450;DHT22;7826;49.784;9.934;2024-01-30T09:03:51;3.70;99.90
15450;DHT22;7826;49.784;9.934;2024-01-30T09:06:17;3.80;99.90
15450;DHT22;7826;49.784;9.934;2024-01-30T09:08:43;4.00;99.90
15450;DHT22;7826;49.784;9.934;2024-01-30T09:11:14;4.00;99.90
15450;DHT22;7826;49.784;9.934;2024-01-30T09:13:41;4.20;99.90
15450;DHT22;7826;49.784;9.934;2024-01-30T09:16:07;4.40;99.90
15450;DHT22;7826;49.784;9.934;2024-01-30T09:18:33;4.60;1.00
15450;DHT22;7826;49.784;9.934;2024-01-30T09:20:59;5.10;1.00
15450;DHT22;7826;49.784;9.934;2024-01-30T09:23:27;5.40;1.00
15450;DHT22;7826;49.784;9.934;2024-01-30T09:25:54;5.60;99.90
15450;DHT22;7826;49.784;9.934;2024-01-30T09:28:20;5.60;99.90
15450;DHT22;7826;49.784;9.934;2024-01-30T09:30:47;6.30;1.00
15450;DHT22;7826;49.784;9.934;2024-01-30T09:33:13;6.20;1.00
15450;DHT22;7826;49.784;9.934;2024-01-30T09:35:39;6.10;99.90
15450;DHT22;7826;49.784;9.934;2024-01-30T09:38:05;6.60;99.90
15450;DHT22;7826;49.784;9.934;2024-01-30T09:40:31;6.80;99.90
15450;DHT22;7826;49.784;9.934;2024-01-30T09:42:59;6.80;1.00
15450;DHT22;7826;49.784;9.934;2024-01-30T09:45:28;6.70;99.90
15450;DHT22;7826;49.784;9.934;2024-01-30T09:47:55;6.30;99.90
15450;DHT22;7826;49.784;9.934;2024-01-30T09:50:25;6.00;1.00
15450;DHT22;7826;49.784;9.934;2024-01-30T09:52:55;6.20;1.00
15450;DHT22;7826;49.784;9.934;2024-01-30T09:55:22;6.00;1.00
15450;DHT22;7826;49.784;9.934;2024-01-30T09:57:48;5.80;1.00
15450;DHT22;7826;49.784;9.934;2024-01-30T10:00:15;5.70;99.90
15450;DHT22;7826;49.784;9.934;2024-01-30T10:02:42;5.90;1.00
15450;DHT22;7826;49.784;9.934;2024-01-30T10:05:08;6.00;90.70
15450;DHT22;7826;49.784;9.934;2024-01-30T10:07:34;5.90;1.00
15450;DHT22;7826;49.784;9.934;2024-01-30T10:10:00;6.00;1.00
15450;DHT22;7826;49.784;9.934;2024-01-30T10:12:27;6.00;1.00
15450;DHT22;7826;49.784;9.934;2024-01-30T10:14:56;6.00;1.00
15450;DHT22;7826;49.784;9.934;2024-01-30T10:17:25;6.00;1.00
15450;DHT22;7826;49.784;9.934;2024-01-30T10:19:51;6.10;99.90
15450;DHT22;7826;49.784;9.934;2024-01-30T10:22:18;6.10;1.00
15450;DHT22;7826;49.784;9.934;2024-01-30T10:24:44;6.20;99.90
15450;DHT22;7826;49.784;9.934;2024-01-30T10:27:11;6.30;99.90
15450;DHT22;7826;49.784;9.934;2024-01-30T10:29:37;6.30;1.00
15450;DHT22;7826;49.784;9.934;2024-01-30T10:32:05;6.30;99.90
15450;DHT22;7826;49.784;9.934;2024-01-30T10:34:32;6.50;99.90
15450;DHT22;7826;49.784;9.934;2024-01-30T10:37:08;6.60;1.00
15450;DHT22;7826;49.784;9.934;2024-01-30T10:39:39;6.60;99.90
15450;DHT22;7826;49.784;9.934;2024-01-30T10:42:07;6.60;1.00
15450;DHT22;7826;49.784;9.934;2024-01-30T10:47:36;6.60;99.90
15450;DHT22;7826;49.784;9.934;2024-01-30T10:50:03;6.70;99.90
15450;DHT22;7826;49.784;9.934;2024-01-30T10:52:29;6.80;1.00
15450;DHT22;7826;49.784;9.934;2024-01-30T10:54:57;6.90;99.90
15450;DHT22;7826;49.784;9.934;2024-01-30T10:57:24;6.80;1.00
15450;DHT22;7826;49.784;9.934;2024-01-30T10:59:53;6.80;99.90
15450;DHT22;7826;49.784;9.934;2024-01-30T11:02:21;6.80;1.00
15450;DHT22;7826;49.784;9.934;2024-01-30T11:04:50;6.90;1.00
15450;DHT22;7826;49.784;9.934;2024-01-30T11:07:25;7.00;1.00
15450;DHT22;7826;49.784;9.934;2024-01-30T11:10:03;7.00;1.00
15450;DHT22;7826;49.784;9.934;2024-01-30T11:12:31;7.00;1.00
15450;DHT22;7826;49.784;9.934;2024-01-30T11:15:12;7.00;99.90
15450;DHT22;7826;49.784;9.934;2024-01-30T11:20:30;7.10;1.00
15450;DHT22;7826;49.784;9.934;2024-01-30T11:23:01;7.10;23.00
15450;DHT22;7826;49.784;9.934;2024-01-30T11:25:32;7.10;8.30
15450;DHT22;7826;49.784;9.934;2024-01-30T11:27:58;7.20;1.00
15450;DHT22;7826;49.784;9.934;2024-01-30T11:30:29;7.20;99.90
15450;DHT22;7826;49.784;9.934;2024-01-30T11:33:10;7.20;1.00
15450;DHT22;7826;49.784;9.934;2024-01-30T11:35:40;7.20;1.00
15450;DHT22;7826;49.784;9.934;2024-01-30T11:38:14;7.40;99.90
15450;DHT22;7826;49.784;9.934;2024-01-30T11:40:40;7.50;1.00
15450;DHT22;7826;49.784;9.934;2024-01-30T11:43:08;7.70;99.90
15450;DHT22;7826;49.784;9.934;2024-01-30T11:45:35;7.80;1.00
15450;DHT22;7826;49.784;9.934;2024-01-30T11:48:03;8.10;1.00
15450;DHT22;7826;49.784;9.934;2024-01-30T11:50:30;8.20;85.20
15450;DHT22;7826;49.784;9.934;2024-01-30T11:52:57;8.20;1.00
15450;DHT22;7826;49.784;9.934;2024-01-30T11:55:29;8.10;1.00
15450;DHT22;7826;49.784;9.934;2024-01-30T11:58:14;8.30;99.90
15450;DHT22;7826;49.784;9.934;2024-01-30T12:00:40;8.50;1.00
15450;DHT22;7826;49.784;9.934;2024-01-30T12:03:07;8.70;99.90
15450;DHT22;7826;49.784;9.934;2024-01-30T12:05:33;9.00;99.90
15450;DHT22;7826;49.784;9.934;2024-01-30T12:07:59;9.00;1.00
15450;DHT22;7826;49.784;9.934;2024-01-30T12:10:25;8.80;99.90
15450;DHT22;7826;49.784;9.934;2024-01-30T12:12:53;8.80;99.90
15450;DHT22;7826;49.784;9.934;2024-01-30T12:15:21;8.70;99.90
15450;DHT22;7826;49.784;9.934;2024-01-30T12:17:48;9.20;99.90
15450;DHT22;7826;49.784;9.934;2024-01-30T12:20:17;9.50;3.90
15450;DHT22;7826;49.784;9.934;2024-01-30T12:22:46;9.80;1.00
15450;DHT22;7826;49.784;9.934;2024-01-30T12:25:22;10.10;99.90
15450;DHT22;7826;49.784;9.934;2024-01-30T12:27:50;10.20;99.90
15450;DHT22;7826;49.784;9.934;2024-01-30T12:30:17;10.30;99.90
15450;DHT22;7826;49.784;9.934;2024-01-30T12:32:45;10.20;99.90
15450;DHT22;7826;49.784;9.934;2024-01-30T12:35:13;10.10;99.90
15450;DHT22;7826;49.784;9.934;2024-01-30T12:37:40;9.80;99.90
15450;DHT22;7826;49.784;9.934;2024-01-30T12:40:07;9.30;99.90
15450;DHT22;7826;49.784;9.934;2024-01-30T12:42:34;9.10;62.60
15450;DHT22;7826;49.784;9.934;2024-01-30T12:45:01;9.00;1.00
15450;DHT22;7826;49.784;9.934;2024-01-30T12:47:27;8.90;1.00
15450;DHT22;7826;49.784;9.934;2024-01-30T12:49:53;8.70;1.00
15450;DHT22;7826;49.784;9.934;2024-01-30T12:52:20;8.70;1.00
15450;DHT22;7826;49.784;9.934;2024-01-30T12:54:48;8.70;1.00
15450;DHT22;7826;49.784;9.934;2024-01-30T12:57:14;8.70;1.00
15450;DHT22;7826;49.784;9.934;2024-01-30T12:59:40;8.60;99.90
15450;DHT22;7826;49.784;9.934;2024-01-30T13:02:07;8.70;99.90
15450;DHT22;7826;49.784;9.934;2024-01-30T13:04:33;8.70;99.90
15450;DHT22;7826;49.784;9.934;2024-01-30T13:06:59;8.60;99.90
15450;DHT22;7826;49.784;9.934;2024-01-30T13:09:26;8.50;1.00
15450;DHT22;7826;49.784;9.934;2024-01-30T13:11:53;8.50;1.00
15450;DHT22;7826;49.784;9.934;2024-01-30T13:14:19;8.50;1.00
15450;DHT22;7826;49.784;9.934;2024-01-30T13:16:45;8.50;1.00
15450;DHT22;7826;49.784;9.934;2024-01-30T13:19:11;8.60;1.00
15450;DHT22;7826;49.784;9.934;2024-01-30T13:21:38;8.70;99.90
15450;DHT22;7826;49.784;9.934;2024-01-30T13:24:04;8.60;1.00
15450;DHT22;7826;49.784;9.934;2024-01-30T13:26:32;8.60;1.00
15450;DHT22;7826;49.784;9.934;2024-01-30T13:29:00;8.60;99.90
15450;DHT22;7826;49.784;9.934;2024-01-30T13:31:26;8.60;99.90
15450;DHT22;7826;49.784;9.934;2024-01-30T13:33:53;8.60;1.00
15450;DHT22;7826;49.784;9.934;2024-01-30T13:36:20;8.70;80.60
15450;DHT22;7826;49.784;9.934;2024-01-30T13:38:47;8.80;1.00
15450;DHT22;7826;49.784;9.934;2024-01-30T13:41:13;8.80;99.90
15450;DHT22;7826;49.784;9.934;2024-01-30T13:43:39;8.70;1.00
15450;DHT22;7826;49.784;9.934;2024-01-30T13:46:05;8.70;99.90
15450;DHT22;7826;49.784;9.934;2024-01-30T13:48:32;8.70;1.00
15450;DHT22;7826;49.784;9.934;2024-01-30T13:50:58;8.70;1.00
15450;DHT22;7826;49.784;9.934;2024-01-30T13:53:24;8.70;1.00
15450;DHT22;7826;49.784;9.934;2024-01-30T13:55:50;8.70;8.00
15450;DHT22;7826;49.784;9.934;2024-01-30T13:58:16;8.70;99.90
15450;DHT22;7826;49.784;9.934;2024-01-30T14:00:42;8.70;99.90
15450;DHT22;7826;49.784;9.934;2024-01-30T14:03:08;8.70;1.00
15450;DHT22;7826;49.784;9.934;2024-01-30T14:05:35;8.70;55.90
15450;DHT22;7826;49.784;9.934;2024-01-30T14:08:01;8.60;99.90
15450;DHT22;7826;49.784;9.934;2024-01-30T14:10:27;8.60;1.20
15450;DHT22;7826;49.784;9.934;2024-01-30T14:12:54;8.60;1.00
15450;DHT22;7826;49.784;9.934;2024-01-30T14:15:20;8.60;99.90
15450;DHT22;7826;49.784;9.934;2024-01-30T14:17:47;8.60;1.00
15450;DHT22;7826;49.784;9.934;2024-01-30T14:20:15;8.60;99.90
15450;DHT22;7826;49.784;9.934;2024-01-30T14:22:45;8.50;1.00
15450;DHT22;7826;49.784;9.934;2024-01-30T14:25:11;8.50;11.30
15450;DHT22;7826;49.784;9.934;2024-01-30T14:27:38;8.40;1.00
15450;DHT22;7826;49.784;9.934;2024-01-30T14:30:04;8.40;1.00
15450;DHT22;7826;49.784;9.934;2024-01-30T14:32:30;8.40;1.00
15450;DHT22;7826;49.784;9.934;2024-01-30T14:34:57;8.50;1.00
15450;DHT22;7826;49.784;9.934;2024-01-30T14:37:23;8.50;1.00
15450;DHT22;7826;49.784;9.934;2024-01-30T14:39:49;8.50;99.90
15450;DHT22;7826;49.784;9.934;2024-01-30T14:42:16;8.40;1.00
15450;DHT22;7826;49.784;9.934;2024-01-30T14:44:42;8.40;1.00
15450;DHT22;7826;49.784;9.934;2024-01-30T14:47:08;8.30;68.90
15450;DHT22;7826;49.784;9.934;2024-01-30T14:49:35;8.30;1.00
15450;DHT22;7826;49.784;9.934;2024-01-30T14:52:01;8.30;1.00
15450;DHT22;7826;49.784;9.934;2024-01-30T14:54:30;8.20;99.90
15450;DHT22;7826;49.784;9.934;2024-01-30T14:56:56;8.20;99.90
15450;DHT22;7826;49.784;9.934;2024-01-30T14:59:23;8.10;1.00
15450;DHT22;7826;49.784;9.934;2024-01-30T15:01:51;8.00;99.90
15450;DHT22;7826;49.784;9.934;2024-01-30T15:04:17;8.10;99.90
15450;DHT22;7826;49.784;9.934;2024-01-30T15:06:43;8.00;1.00
15450;DHT22;7826;49.784;9.934;2024-01-30T15:09:12;7.90;1.00
15450;DHT22;7826;49.784;9.934;2024-01-30T15:11:44;7.90;14.70
15450;DHT22;7826;49.784;9.934;2024-01-30T15:14:11;7.80;99.90
15450;DHT22;7826;49.784;9.934;2024-01-30T15:16:37;7.80;99.90
15450;DHT22;7826;49.784;9.934;2024-01-30T15:19:04;7.80;93.60
15450;DHT22;7826;49.784;9.934;2024-01-30T15:21:31;7.80;99.90
15450;DHT22;7826;49.784;9.934;2024-01-30T15:23:57;7.80;99.90
15450;DHT22;7826;49.784;9.934;2024-01-30T15:26:23;7.70;99.90
15450;DHT22;7826;49.784;9.934;2024-01-30T15:28:51;7.80;99.90
15450;DHT22;7826;49.784;9.934;2024-01-30T15:31:17;7.70;99.90
15450;DHT22;7826;49.784;9.934;2024-01-30T15:33:43;7.60;99.90
15450;DHT22;7826;49.784;9.934;2024-01-30T15:36:10;7.50;1.00
15450;DHT22;7826;49.784;9.934;2024-01-30T15:38:39;7.60;1.00
15450;DHT22;7826;49.784;9.934;2024-01-30T15:41:05;7.60;1.00
15450;DHT22;7826;49.784;9.934;2024-01-30T15:43:31;7.60;1.00
15450;DHT22;7826;49.784;9.934;2024-01-30T15:46:02;7.60;1.00
15450;DHT22;7826;49.784;9.934;2024-01-30T15:48:28;7.40;1.00
15450;DHT22;7826;49.784;9.934;2024-01-30T15:50:56;7.40;1.00
15450;DHT22;7826;49.784;9.934;2024-01-30T15:53:22;7.30;1.00
15450;DHT22;7826;49.784;9.934;2024-01-30T15:55:48;7.30;1.00
15450;DHT22;7826;49.784;9.934;2024-01-30T15:58:15;7.30;1.00
15450;DHT22;7826;49.784;9.934;2024-01-30T16:00:41;7.30;1.00
15450;DHT22;7826;49.784;9.934;2024-01-30T16:03:07;7.20;1.00
15450;DHT22;7826;49.784;9.934;2024-01-30T16:05:33;7.20;1.00
15450;DHT22;7826;49.784;9.934;2024-01-30T16:07:59;7.20;1.00
15450;DHT22;7826;49.784;9.934;2024-01-30T16:10:26;7.10;1.00
15450;DHT22;7826;49.784;9.934;2024-01-30T16:12:52;7.00;1.00
15450;DHT22;7826;49.784;9.934;2024-01-30T16:15:18;7.00;16.10
15450;DHT22;7826;49.784;9.934;2024-01-30T16:17:45;6.90;99.90
15450;DHT22;7826;49.784;9.934;2024-01-30T16:20:12;6.80;99.90
15450;DHT22;7826;49.784;9.934;2024-01-30T16:22:40;6.80;99.90
15450;DHT22;7826;49.784;9.934;2024-01-30T16:25:07;6.70;99.90
15450;DHT22;7826;49.784;9.934;2024-01-30T16:27:33;6.60;99.90
15450;DHT22;7826;49.784;9.934;2024-01-30T16:29:59;6.70;99.90
15450;DHT22;7826;49.784;9.934;2024-01-30T16:32:25;6.90;99.90
15450;DHT22;7826;49.784;9.934;2024-01-30T16:34:52;6.90;99.90
15450;DHT22;7826;49.784;9.934;2024-01-30T16:37:18;6.80;99.90
15450;DHT22;7826;49.784;9.934;2024-01-30T16:39:44;6.70;99.90
15450;DHT22;7826;49.784;9.934;2024-01-30T16:42:10;6.60;99.90
15450;DHT22;7826;49.784;9.934;2024-01-30T16:44:38;6.60;99.90
15450;DHT22;7826;49.784;9.934;2024-01-30T16:47:04;6.60;99.90
15450;DHT22;7826;49.784;9.934;2024-01-30T16:49:30;6.60;99.90
15450;DHT22;7826;49.784;9.934;2024-01-30T16:51:56;6.60;99.90
15450;DHT22;7826;49.784;9.934;2024-01-30T16:54:22;6.60;99.90
15450;DHT22;7826;49.784;9.934;2024-01-30T16:56:48;6.60;99.90
15450;DHT22;7826;49.784;9.934;2024-01-30T16:59:15;6.60;99.90
15450;DHT22;7826;49.784;9.934;2024-01-30T17:01:42;6.70;99.90
15450;DHT22;7826;49.784;9.934;2024-01-30T17:04:11;6.80;99.90
15450;DHT22;7826;49.784;9.934;2024-01-30T17:06:37;6.80;99.90
15450;DHT22;7826;49.784;9.934;2024-01-30T17:09:04;6.80;99.90
15450;DHT22;7826;49.784;9.934;2024-01-30T17:11:30;6.80;99.90
15450;DHT22;7826;49.784;9.934;2024-01-30T17:13:56;6.80;99.90
15450;DHT22;7826;49.784;9.934;2024-01-30T17:16:22;6.80;99.90
15450;DHT22;7826;49.784;9.934;2024-01-30T17:18:48;6.80;99.90
15450;DHT22;7826;49.784;9.934;2024-01-30T17:21:19;6.70;99.90
15450;DHT22;7826;49.784;9.934;2024-01-30T17:23:45;6.70;99.90
15450;DHT22;7826;49.784;9.934;2024-01-30T17:26:12;6.80;99.90
15450;DHT22;7826;49.784;9.934;2024-01-30T17:28:38;6.80;99.90
15450;DHT22;7826;49.784;9.934;2024-01-30T17:31:04;6.80;99.90
15450;DHT22;7826;49.784;9.934;2024-01-30T17:33:30;6.80;99.90
15450;DHT22;7826;49.784;9.934;2024-01-30T17:35:57;6.80;99.90
15450;DHT22;7826;49.784;9.934;2024-01-30T17:38:23;6.90;99.90
15450;DHT22;7826;49.784;9.934;2024-01-30T17:40:49;7.00;99.90
15450;DHT22;7826;49.784;9.934;2024-01-30T17:43:17;7.10;99.90
15450;DHT22;7826;49.784;9.934;2024-01-30T17:45:44;7.20;99.90
15450;DHT22;7826;49.784;9.934;2024-01-30T17:48:10;7.30;99.90
15450;DHT22;7826;49.784;9.934;2024-01-30T17:50:36;7.30;99.90
15450;DHT22;7826;49.784;9.934;2024-01-30T17:53:02;7.30;99.90
15450;DHT22;7826;49.784;9.934;2024-01-30T17:55:28;7.40;99.90